Time;durP1;ratioP1;P1;durP2;ratioP2;P2;SDS_P1;SDS_P2;PMS_P1;PMS_P2;Temp;Humidity;BMP_temperature;BMP_pressure;BME280_temperature;BME280_humidity;BME280_pressure;Samples;Min_cycle;Max_cycle;Signal;HPM_P1;HPM_P2
2023/09/28 00:00:46;;;;;;;24.40;13.60;;;;;;;17.70;89.89;100378.54;105858;1254;60918;-66
2023/09/28 00:03:22;;;;;;;20.20;13.20;;;;;;;17.69;89.81;100376.48;105962;1256;71771;-68
2023/09/28 00:06:11;;;;;;;22.90;12.50;;;;;;;17.68;89.71;100375.86;105903;1255;68398;-67
2023/09/28 00:08:59;;;;;;;22.90;12.40;;;;;;;17.70;89.46;100373.74;105987;1254;70991;-67
2023/09/28 00:11:47;;;;;;;21.80;12.90;;;;;;;17.72;89.22;100369.04;105980;1254;60111;-68
2023/09/28 00:14:36;;;;;;;22.90;12.50;;;;;;;17.72;88.91;100369.26;106012;1256;59884;-65
2023/09/28 00:17:24;;;;;;;23.00;13.20;;;;;;;17.70;88.92;100371.70;106059;1256;73465;-65
2023/09/28 00:20:13;;;;;;;26.50;13.30;;;;;;;17.68;88.85;100373.95;105841;1253;68352;-65
2023/09/28 00:23:03;;;;;;;24.40;12.80;;;;;;;17.63;88.92;100371.86;106057;1257;73953;-67
2023/09/28 00:25:52;;;;;;;23.60;13.70;;;;;;;17.59;88.96;100376.11;105788;1257;59672;-63
2023/09/28 00:28:40;;;;;;;20.00;12.50;;;;;;;17.56;89.20;100376.05;106034;1255;61797;-65
2023/09/28 00:31:28;;;;;;;21.90;12.90;;;;;;;17.53;89.27;100374.95;105953;1254;71374;-67
2023/09/28 00:34:16;;;;;;;21.90;12.90;;;;;;;17.51;89.38;100375.31;105890;1256;68223;-66
2023/09/28 00:37:04;;;;;;;21.30;12.20;;;;;;;17.50;89.38;100377.38;105970;1256;71936;-66
2023/09/28 00:39:55;;;;;;;23.30;13.20;;;;;;;17.48;89.35;100374.86;105881;1256;59707;-66
2023/09/28 00:42:47;;;;;;;23.70;12.90;;;;;;;17.47;89.47;100373.40;105859;1256;60760;-65
2023/09/28 00:45:37;;;;;;;23.20;13.80;;;;;;;17.46;89.49;100371.90;105843;1257;72607;-69
2023/09/28 00:48:25;;;;;;;18.40;13.10;;;;;;;17.43;89.53;100371.11;105846;1260;67660;-67
2023/09/28 00:51:16;;;;;;;21.40;13.50;;;;;;;17.40;89.60;100370.55;106024;1255;73076;-64
2023/09/28 00:54:06;;;;;;;22.30;13.20;;;;;;;17.36;89.74;100368.40;105730;1257;59874;-67
2023/09/28 00:56:54;;;;;;;24.20;12.80;;;;;;;17.34;89.86;100369.34;105794;1258;60903;-65
2023/09/28 00:59:42;;;;;;;20.20;12.80;;;;;;;17.32;89.91;100364.88;105674;1252;73536;-63
2023/09/28 01:02:31;;;;;;;25.20;13.50;;;;;;;17.29;90.08;100368.23;106001;1251;67179;-63
2023/09/28 01:05:33;;;;;;;25.00;14.00;;;;;;;17.26;90.23;100366.31;105826;1255;74235;-65
2023/09/28 01:08:22;;;;;;;23.00;13.70;;;;;;;17.22;90.41;100361.40;105958;1260;59669;-64
2023/09/28 01:11:11;;;;;;;23.00;13.10;;;;;;;17.18;90.65;100366.04;106077;1252;60793;-64
2023/09/28 01:14:02;;;;;;;22.20;13.90;;;;;;;17.14;90.80;100362.19;105950;1254;72494;-63
2023/09/28 01:16:51;;;;;;;27.70;13.60;;;;;;;17.10;90.95;100361.70;105863;1257;68453;-62
2023/09/28 01:19:39;;;;;;;23.50;14.10;;;;;;;17.07;90.99;100358.02;105919;1264;71854;-62
2023/09/28 01:22:27;;;;;;;24.30;13.80;;;;;;;17.04;91.17;100358.17;105889;1254;59685;-63
2023/09/28 01:25:19;;;;;;;22.10;13.40;;;;;;;17.00;91.34;100355.27;105847;1258;60029;-64
2023/09/28 01:28:07;;;;;;;23.60;14.10;;;;;;;16.96;91.52;100350.65;105931;1253;75244;-63
2023/09/28 01:30:56;;;;;;;24.10;13.40;;;;;;;16.92;91.99;100350.45;105754;1256;68255;-63
2023/09/28 01:33:44;;;;;;;24.30;14.40;;;;;;;16.88;92.44;100347.06;105899;1257;71822;-61
2023/09/28 01:36:32;;;;;;;22.50;13.60;;;;;;;16.81;92.40;100338.88;105951;1254;59529;-63
2023/09/28 01:39:20;;;;;;;26.50;13.90;;;;;;;16.76;92.93;100343.48;105950;1252;61565;-62
2023/09/28 01:42:08;;;;;;;25.90;14.00;;;;;;;16.72;93.46;100342.16;105803;1256;73540;-64
2023/09/28 01:44:56;;;;;;;24.20;14.20;;;;;;;16.68;93.71;100341.25;106071;1256;68445;-64
2023/09/28 01:47:44;;;;;;;21.50;14.40;;;;;;;16.65;93.68;100341.55;105922;1256;73219;-63
2023/09/28 01:50:33;;;;;;;20.70;14.40;;;;;;;16.62;93.82;100337.79;106140;1257;60364;-64
2023/09/28 01:53:20;;;;;;;23.60;13.30;;;;;;;16.60;94.37;100335.96;105957;1259;60820;-64
2023/09/28 01:56:11;;;;;;;23.70;14.00;;;;;;;16.58;94.16;100338.13;105742;1252;73573;-63
2023/09/28 01:58:59;;;;;;;23.90;13.80;;;;;;;16.56;94.40;100335.48;105927;1257;67436;-65
2023/09/28 02:01:47;;;;;;;22.10;13.90;;;;;;;16.55;94.34;100335.94;105911;1260;72855;-63
2023/09/28 02:04:39;;;;;;;22.50;13.60;;;;;;;16.52;94.32;100327.11;105870;1267;60067;-64
2023/09/28 02:07:27;;;;;;;22.70;14.20;;;;;;;16.50;94.61;100328.02;106088;1254;61019;-63
2023/09/28 02:10:16;;;;;;;22.20;14.10;;;;;;;16.47;94.66;100323.33;105794;1256;71744;-63
2023/09/28 02:13:04;;;;;;;24.70;15.40;;;;;;;16.43;94.93;100323.30;105876;1258;68424;-64
2023/09/28 02:15:54;;;;;;;23.10;14.60;;;;;;;16.40;95.49;100323.42;106119;1257;72171;-63
2023/09/28 02:18:42;;;;;;;28.80;13.80;;;;;;;16.37;95.41;100318.90;105892;1257;61058;-64
2023/09/28 02:21:32;;;;;;;21.60;13.90;;;;;;;16.35;95.58;100318.02;105762;1256;241666;-63
2023/09/28 02:24:20;;;;;;;24.90;14.30;;;;;;;16.33;95.76;100317.27;105851;1257;73588;-66
2023/09/28 02:27:08;;;;;;;24.50;14.60;;;;;;;16.32;95.59;100315.98;105964;1254;67073;-64
2023/09/28 02:29:59;;;;;;;20.90;13.90;;;;;;;16.30;95.86;100314.20;106062;1257;74165;-64
2023/09/28 02:32:49;;;;;;;26.20;14.60;;;;;;;16.28;95.93;100313.16;105982;1257;59898;-63
2023/09/28 02:35:38;;;;;;;24.70;14.70;;;;;;;16.26;96.01;100313.02;105901;1257;61610;-65
2023/09/28 02:38:29;;;;;;;22.40;13.80;;;;;;;16.24;95.92;100311.95;105893;1254;73460;-64
2023/09/28 02:41:19;;;;;;;23.00;14.30;;;;;;;16.21;95.90;100312.20;105944;1257;67945;-64
2023/09/28 02:44:07;;;;;;;23.50;14.80;;;;;;;16.19;96.24;100308.69;105809;1254;72069;-65
2023/09/28 02:46:55;;;;;;;24.80;14.70;;;;;;;16.16;96.42;100308.39;105988;1257;59709;-65
2023/09/28 02:49:44;;;;;;;27.60;15.10;;;;;;;16.13;96.56;100308.82;106039;1257;59975;-67
2023/09/28 02:52:33;;;;;;;25.00;14.70;;;;;;;16.08;96.70;100309.14;105924;1257;74438;-66
2023/09/28 02:55:21;;;;;;;22.80;14.50;;;;;;;16.04;97.10;100307.60;106009;1257;67275;-65
2023/09/28 02:58:09;;;;;;;27.10;15.50;;;;;;;16.00;97.10;100312.62;105970;1257;73192;-67
2023/09/28 03:00:57;;;;;;;23.30;14.40;;;;;;;15.97;97.13;100313.98;105596;1259;59980;-66
2023/09/28 03:03:46;;;;;;;23.00;14.50;;;;;;;15.93;97.66;100315.75;106017;1256;60868;-64
2023/09/28 03:06:40;;;;;;;22.50;14.50;;;;;;;15.90;97.66;100313.06;106457;1253;72394;-67
2023/09/28 03:09:28;;;;;;;28.30;14.50;;;;;;;15.89;98.24;100317.64;106815;1257;65981;-67
2023/09/28 03:12:17;;;;;;;22.70;13.60;;;;;;;15.88;98.18;100318.21;105730;1257;73122;-67
2023/09/28 03:15:12;;;;;;;21.70;14.10;;;;;;;15.87;97.98;100316.77;105662;1259;59862;-65
2023/09/28 03:18:00;;;;;;;23.30;13.70;;;;;;;15.85;98.42;100319.13;105849;1257;60924;-65
2023/09/28 03:20:48;;;;;;;22.10;14.10;;;;;;;15.81;98.20;100316.37;105943;1253;71963;-66
2023/09/28 03:23:37;;;;;;;22.50;13.60;;;;;;;15.78;98.54;100314.90;105988;1257;68132;-65
2023/09/28 03:26:27;;;;;;;26.00;15.60;;;;;;;15.76;98.76;100309.36;105900;1257;72073;-65
2023/09/28 03:29:15;;;;;;;25.30;14.60;;;;;;;15.73;98.82;100310.90;105964;1257;59942;-65
2023/09/28 03:32:04;;;;;;;23.60;15.00;;;;;;;15.70;98.64;100311.92;106042;1254;59555;-66
2023/09/28 03:34:52;;;;;;;20.90;13.70;;;;;;;15.66;98.91;100309.91;105894;1254;74325;-65
2023/09/28 03:37:41;;;;;;;22.70;13.40;;;;;;;15.63;99.30;100308.74;105720;1257;67138;-66
2023/09/28 03:40:33;;;;;;;26.10;15.50;;;;;;;15.59;99.07;100310.04;105924;1257;72278;-65
2023/09/28 03:43:21;;;;;;;22.80;15.10;;;;;;;15.55;99.05;100310.42;105744;1255;60882;-66
2023/09/28 03:46:11;;;;;;;21.10;13.50;;;;;;;15.51;98.87;100306.89;105985;1254;61391;-67
2023/09/28 03:48:59;;;;;;;20.70;13.50;;;;;;;15.46;98.96;100310.75;106063;1253;72507;-64
2023/09/28 03:51:47;;;;;;;24.10;14.30;;;;;;;15.42;98.97;100313.27;106096;1255;67269;-65
2023/09/28 03:54:35;;;;;;;24.60;14.50;;;;;;;15.38;99.21;100313.25;105988;1257;73192;-65
2023/09/28 03:57:24;;;;;;;21.40;13.10;;;;;;;15.35;99.28;100311.23;105985;1257;59701;-65
2023/09/28 04:00:16;;;;;;;27.40;15.30;;;;;;;15.33;99.42;100310.30;106078;1254;60905;-64
2023/09/28 04:03:04;;;;;;;26.30;13.90;;;;;;;15.33;99.25;100306.63;105814;1255;73033;-67
2023/09/28 04:05:53;;;;;;;24.80;14.20;;;;;;;15.29;99.42;100308.00;105852;1257;69391;-67
2023/09/28 04:08:41;;;;;;;23.60;15.30;;;;;;;15.25;99.32;100305.17;105932;1254;73974;-66
2023/09/28 04:11:29;;;;;;;22.40;14.50;;;;;;;15.27;99.30;100310.34;106057;1253;59612;-67
2023/09/28 04:14:17;;;;;;;24.00;13.30;;;;;;;15.25;99.27;100306.41;105797;1254;62334;-65
2023/09/28 04:17:08;;;;;;;26.40;14.50;;;;;;;15.24;99.25;100306.05;105693;1256;74480;-66
2023/09/28 04:19:55;;;;;;;25.00;13.90;;;;;;;15.22;99.34;100305.83;105974;1257;69369;-65
2023/09/28 04:22:44;;;;;;;25.50;14.40;;;;;;;15.21;99.05;100303.43;105967;1254;73015;-70
2023/09/28 04:25:33;;;;;;;26.30;14.10;;;;;;;15.20;99.04;100304.79;105928;1257;61199;-68
2023/09/28 04:28:21;;;;;;;23.70;14.10;;;;;;;15.19;99.01;100305.79;106000;1257;61650;-67
2023/09/28 04:31:09;;;;;;;22.70;14.30;;;;;;;15.19;98.93;100305.45;106051;1252;74780;-70
2023/09/28 04:33:57;;;;;;;22.10;14.10;;;;;;;15.18;98.85;100305.69;105905;1254;67399;-70
2023/09/28 04:36:45;;;;;;;28.10;15.00;;;;;;;15.17;98.67;100302.94;105632;1257;72322;-68
2023/09/28 04:39:34;;;;;;;24.90;14.90;;;;;;;15.17;98.56;100304.58;105663;1251;61169;-67
2023/09/28 04:42:22;;;;;;;22.80;13.70;;;;;;;15.15;98.62;100303.05;105844;1254;61857;-68
2023/09/28 04:45:11;;;;;;;23.70;14.20;;;;;;;15.13;98.50;100304.29;105959;1254;74857;-66
2023/09/28 04:48:00;;;;;;;23.30;14.40;;;;;;;15.12;98.54;100304.45;105856;1253;69369;-67
2023/09/28 04:50:50;;;;;;;25.60;13.40;;;;;;;15.10;98.84;100308.16;105772;1254;72957;-67
2023/09/28 04:53:40;;;;;;;22.10;13.90;;;;;;;15.09;98.68;100309.38;105747;1256;60012;-66
2023/09/28 04:56:31;;;;;;;24.00;13.80;;;;;;;15.09;98.81;100310.41;105955;1254;60699;-65
2023/09/28 04:59:19;;;;;;;24.50;14.20;;;;;;;15.09;98.65;100308.61;105869;1254;73318;-65
2023/09/28 05:02:08;;;;;;;22.50;13.60;;;;;;;15.10;98.52;100311.40;106044;1254;69497;-67
2023/09/28 05:04:56;;;;;;;24.80;15.40;;;;;;;15.10;98.23;100309.39;105726;1254;73964;-67
2023/09/28 05:07:44;;;;;;;25.70;13.40;;;;;;;15.13;98.23;100310.27;106709;1256;59640;-69
2023/09/28 05:10:32;;;;;;;21.80;14.10;;;;;;;15.16;97.95;100310.16;105819;1254;60787;-66
2023/09/28 05:13:24;;;;;;;19.70;12.90;;;;;;;15.17;97.76;100307.54;105628;1254;72703;-67
2023/09/28 05:16:12;;;;;;;22.50;14.20;;;;;;;15.20;97.93;100303.01;105865;1254;67612;-64
2023/09/28 05:19:00;;;;;;;26.20;14.70;;;;;;;15.23;97.74;100307.38;105758;1254;72530;-63
2023/09/28 05:21:49;;;;;;;25.40;14.80;;;;;;;15.25;97.90;100308.77;107134;1251;59523;-65
2023/09/28 05:24:37;;;;;;;22.00;15.00;;;;;;;15.28;97.78;100307.20;105727;1257;61165;-64
2023/09/28 05:27:25;;;;;;;25.40;15.40;;;;;;;15.32;97.24;100305.39;106009;1253;74536;-66
2023/09/28 05:30:14;;;;;;;27.00;15.00;;;;;;;15.37;97.08;100305.52;105969;1256;67460;-66
2023/09/28 05:33:03;;;;;;;21.90;14.90;;;;;;;15.41;96.80;100307.42;105772;1257;74092;-68
2023/09/28 05:35:51;;;;;;;24.80;15.50;;;;;;;15.47;96.42;100307.62;105711;1256;59605;-66
2023/09/28 05:38:39;;;;;;;22.80;14.20;;;;;;;15.53;95.97;100311.38;105896;1264;59895;-66
2023/09/28 05:41:27;;;;;;;26.70;15.00;;;;;;;15.58;95.47;100311.09;105927;1254;73452;-65
2023/09/28 05:44:16;;;;;;;26.60;15.60;;;;;;;15.64;95.07;100313.48;105751;1257;69447;-63
2023/09/28 05:47:04;;;;;;;22.80;14.20;;;;;;;15.70;94.36;100314.60;106048;1253;71177;-64
2023/09/28 05:49:53;;;;;;;25.60;14.50;;;;;;;15.75;94.24;100312.44;105997;1251;60899;-67
2023/09/28 05:52:41;;;;;;;24.60;15.00;;;;;;;15.80;93.70;100311.83;106035;1257;59889;-65
2023/09/28 05:55:29;;;;;;;24.70;13.70;;;;;;;15.86;93.41;100312.34;105982;1254;74263;-66
2023/09/28 05:58:17;;;;;;;23.80;13.80;;;;;;;15.91;92.94;100314.24;105641;1256;67170;-67
2023/09/28 06:01:07;;;;;;;21.30;12.90;;;;;;;15.97;92.64;100311.48;105564;1252;72715;-65
2023/09/28 06:03:56;;;;;;;23.10;13.60;;;;;;;16.04;92.28;100309.27;105418;1257;59628;-66
2023/09/28 06:06:46;;;;;;;25.70;14.50;;;;;;;16.11;91.73;100310.70;105957;1254;61618;-63
2023/09/28 06:09:34;;;;;;;22.90;13.80;;;;;;;16.19;91.26;100307.89;105602;1254;72434;-64
2023/09/28 06:12:21;;;;;;;25.60;14.50;;;;;;;16.28;90.53;100303.52;106223;1251;67366;-65
2023/09/28 06:15:10;;;;;;;21.60;14.40;;;;;;;16.36;90.21;100304.11;105946;1257;71810;-62
2023/09/28 06:17:58;;;;;;;24.40;13.90;;;;;;;16.44;89.55;100301.92;105749;1256;60073;-65
2023/09/28 06:20:46;;;;;;;19.50;13.10;;;;;;;16.52;89.32;100307.05;105705;1253;60044;-67
2023/09/28 06:23:35;;;;;;;24.30;14.10;;;;;;;16.61;89.13;100308.67;105995;1254;71501;-64
2023/09/28 06:26:24;;;;;;;25.00;15.00;;;;;;;16.72;88.82;100310.63;105753;1256;67074;-64
2023/09/28 06:29:28;;;;;;;23.80;15.30;;;;;;;16.84;88.06;100315.38;106121;1253;74133;-65
2023/09/28 06:32:21;;;;;;;28.60;15.50;;;;;;;16.93;87.68;100317.13;105810;1259;59627;-65
2023/09/28 06:35:09;;;;;;;27.30;15.70;;;;;;;17.04;86.90;100317.32;105857;1254;59716;-65
2023/09/28 06:37:59;;;;;;;24.70;14.30;;;;;;;17.14;86.91;100313.58;106057;1252;73749;-65
2023/09/28 06:40:48;;;;;;;25.40;15.10;;;;;;;17.30;86.22;100317.66;105991;1257;69546;-66
2023/09/28 06:43:36;;;;;;;25.30;13.40;;;;;;;17.51;85.45;100318.30;105774;1254;74380;-63
2023/09/28 06:46:25;;;;;;;21.90;13.80;;;;;;;17.86;84.57;100316.29;106020;1252;59736;-65
2023/09/28 06:49:13;;;;;;;22.70;12.90;;;;;;;19.04;82.39;100312.38;105899;1253;59832;-65
2023/09/28 06:52:01;;;;;;;20.20;11.30;;;;;;;20.89;75.08;100310.76;105962;1254;74557;-64
2023/09/28 06:54:49;;;;;;;20.50;11.90;;;;;;;22.49;68.84;100312.16;105695;1256;68390;-63
2023/09/28 06:57:46;;;;;;;20.80;12.50;;;;;;;23.92;61.31;100306.16;105500;1260;73244;-63
2023/09/28 07:00:35;;;;;;;20.10;10.70;;;;;;;25.13;58.86;100304.98;105701;1260;59720;-67
2023/09/28 07:03:25;;;;;;;17.00;10.50;;;;;;;26.44;53.29;100309.50;105775;1259;60855;-65
2023/09/28 07:06:14;;;;;;;21.00;10.50;;;;;;;27.40;50.22;100305.27;105995;1256;72057;-65
2023/09/28 07:09:03;;;;;;;17.30;10.30;;;;;;;28.07;46.65;100304.80;105746;1256;68264;-64
2023/09/28 07:11:52;;;;;;;20.40;10.60;;;;;;;28.54;45.28;100304.65;105637;1259;73196;-68
2023/09/28 07:14:42;;;;;;;15.20;9.60;;;;;;;28.92;43.23;100304.77;105368;1256;59649;-65
2023/09/28 07:17:30;;;;;;;18.20;9.80;;;;;;;29.19;42.60;100304.09;105651;1257;60678;-65
2023/09/28 07:20:20;;;;;;;18.20;10.20;;;;;;;29.49;41.93;100306.00;105720;1257;73909;-68
2023/09/28 07:23:09;;;;;;;15.50;9.80;;;;;;;29.95;40.87;100304.54;105699;1257;68069;-65
2023/09/28 07:25:57;;;;;;;16.30;8.70;;;;;;;30.33;39.37;100306.48;105576;1257;73259;-63
2023/09/28 07:28:46;;;;;;;21.80;9.70;;;;;;;30.58;39.37;100310.70;105586;1257;59737;-63
2023/09/28 07:31:34;;;;;;;16.40;8.90;;;;;;;30.82;38.32;100306.42;105799;1254;61904;-63
2023/09/28 07:34:22;;;;;;;18.20;8.50;;;;;;;30.81;38.27;100308.94;105883;1253;73339;-63
2023/09/28 07:37:13;;;;;;;14.80;8.40;;;;;;;30.93;38.23;100307.64;105679;1256;69394;-65
2023/09/28 07:40:04;;;;;;;16.30;8.80;;;;;;;31.18;37.99;100303.52;105830;1254;73160;-64
2023/09/28 07:42:52;;;;;;;13.40;8.30;;;;;;;31.76;38.01;100302.13;105760;1254;59670;-63
2023/09/28 07:45:40;;;;;;;17.60;8.80;;;;;;;32.14;36.49;100301.91;106043;1256;60987;-70
2023/09/28 07:48:29;;;;;;;14.80;7.50;;;;;;;32.43;35.92;100301.91;105956;1253;74542;-65
2023/09/28 07:51:17;;;;;;;14.40;8.30;;;;;;;32.44;35.64;100305.66;105598;1257;68108;-63
2023/09/28 07:54:05;;;;;;;16.20;8.40;;;;;;;32.72;35.45;100306.46;105784;1256;73239;-66
2023/09/28 07:56:55;;;;;;;15.50;8.30;;;;;;;32.82;34.62;100308.65;105868;1254;59736;-68
2023/09/28 07:59:43;;;;;;;16.20;8.40;;;;;;;33.03;34.94;100304.05;105908;1253;61008;-66
2023/09/28 08:02:31;;;;;;;14.70;8.40;;;;;;;33.63;34.41;100303.21;105569;1254;73395;-68
2023/09/28 08:05:21;;;;;;;15.90;7.70;;;;;;;34.09;32.77;100306.53;105904;1253;68161;-65
2023/09/28 08:08:10;;;;;;;14.90;8.60;;;;;;;34.08;32.49;100304.48;106022;1256;73124;-64
2023/09/28 08:11:05;;;;;;;16.50;7.70;;;;;;;34.40;32.56;100305.16;105816;1254;59742;-64
2023/09/28 08:13:54;;;;;;;15.20;7.30;;;;;;;34.76;31.85;100304.16;105820;1256;60720;-63
2023/09/28 08:16:46;;;;;;;15.30;7.60;;;;;;;35.05;31.38;100298.95;105731;1254;74611;-62
2023/09/28 08:19:35;;;;;;;15.70;7.20;;;;;;;35.17;30.92;100300.38;105944;1251;67014;-62
2023/09/28 08:22:24;;;;;;;15.20;7.80;;;;;;;35.50;31.07;100302.23;106005;1257;74143;-65
2023/09/28 08:25:14;;;;;;;16.20;7.40;;;;;;;35.94;30.22;100297.95;105961;1256;59721;-65
2023/09/28 08:28:02;;;;;;;13.20;7.20;;;;;;;36.02;29.66;100291.83;105808;1254;61762;-64
2023/09/28 08:30:53;;;;;;;12.90;7.10;;;;;;;35.92;29.50;100288.05;105660;1254;73585;-63
2023/09/28 08:33:45;;;;;;;14.30;7.00;;;;;;;35.77;29.11;100290.77;105912;1254;67398;-65
2023/09/28 08:36:33;;;;;;;15.30;6.70;;;;;;;35.25;29.47;100297.73;105841;1254;72279;-68
2023/09/28 08:39:21;;;;;;;15.30;7.40;;;;;;;34.67;30.49;100285.54;105831;1256;59548;-65
2023/09/28 08:42:15;;;;;;;13.30;6.30;;;;;;;34.75;30.84;100285.65;105469;1256;59811;-63
2023/09/28 08:45:05;;;;;;;15.00;6.90;;;;;;;34.72;30.84;100280.52;106049;1251;73868;-62
2023/09/28 08:47:56;;;;;;;15.10;7.40;;;;;;;34.93;30.64;100278.00;105826;1253;69452;-63
2023/09/28 08:50:47;;;;;;;11.50;6.30;;;;;;;35.23;30.19;100280.73;105836;1256;73118;-63
2023/09/28 08:53:40;;;;;;;14.80;6.60;;;;;;;35.44;30.07;100277.89;105607;1253;59739;-64
2023/09/28 08:56:30;;;;;;;15.20;7.00;;;;;;;35.77;29.42;100268.78;105759;1251;61581;-61
2023/09/28 08:59:19;;;;;;;13.20;6.70;;;;;;;35.76;29.35;100272.09;105828;1251;73491;-63
2023/09/28 09:02:08;;;;;;;14.00;6.70;;;;;;;35.95;28.94;100275.64;105713;1256;68458;-64
2023/09/28 09:04:57;;;;;;;14.50;7.30;;;;;;;36.15;28.92;100271.27;105898;1251;72829;-65
2023/09/28 09:07:45;;;;;;;12.20;6.70;;;;;;;36.19;28.41;100268.70;106215;1255;59627;-66
2023/09/28 09:10:35;;;;;;;16.10;6.80;;;;;;;36.01;28.51;100262.88;105914;1254;60722;-65
2023/09/28 09:13:23;;;;;;;12.10;6.70;;;;;;;35.84;28.53;100258.63;105999;1251;72485;-63
2023/09/28 09:16:12;;;;;;;13.70;7.20;;;;;;;35.86;28.57;100254.41;105947;1257;67045;-64
2023/09/28 09:19:01;;;;;;;16.90;6.70;;;;;;;36.18;28.60;100246.34;105870;1255;73245;-64
2023/09/28 09:21:51;;;;;;;13.60;6.60;;;;;;;36.36;28.16;100253.21;105615;1254;59749;-62
2023/09/28 09:24:53;;;;;;;13.10;6.50;;;;;;;36.55;28.22;100249.10;105844;1254;61865;-65
2023/09/28 09:27:43;;;;;;;13.20;6.10;;;;;;;36.57;27.34;100249.46;105622;1253;72458;-62
2023/09/28 09:30:39;;;;;;;11.20;6.00;;;;;;;36.33;27.67;100250.52;105895;1253;68107;-62
2023/09/28 09:33:28;;;;;;;12.80;5.60;;;;;;;36.70;27.66;100254.30;105679;1254;71671;-64
2023/09/28 09:36:18;;;;;;;14.90;7.00;;;;;;;37.18;27.10;100252.61;105941;1256;59742;-65
2023/09/28 09:39:08;;;;;;;15.80;6.20;;;;;;;37.21;26.37;100253.36;105893;1254;59781;-62
2023/09/28 09:42:00;;;;;;;12.30;6.10;;;;;;;37.16;26.42;100253.84;105836;1256;71789;-63
2023/09/28 09:44:52;;;;;;;12.90;6.20;;;;;;;37.16;26.42;100249.24;105657;1254;67750;-64
2023/09/28 09:47:49;;;;;;;14.10;6.50;;;;;;;37.18;26.25;100247.77;105690;1257;71825;-64
2023/09/28 09:50:38;;;;;;;14.00;6.60;;;;;;;36.97;26.34;100244.88;105736;1254;59759;-63
2023/09/28 09:53:30;;;;;;;11.50;5.70;;;;;;;36.96;26.55;100242.06;105660;1258;59689;-65
2023/09/28 09:56:19;;;;;;;16.90;6.50;;;;;;;36.90;26.29;100246.50;105241;1254;73554;-65
2023/09/28 09:59:12;;;;;;;12.40;5.90;;;;;;;36.66;26.58;100242.63;105734;1256;69316;-64
2023/09/28 10:02:03;;;;;;;11.40;5.70;;;;;;;36.27;26.68;100237.59;105867;1257;74179;-64
2023/09/28 10:04:55;;;;;;;11.50;6.00;;;;;;;36.80;26.62;100229.70;105837;1253;59720;-65
2023/09/28 10:07:43;;;;;;;11.90;5.90;;;;;;;37.40;25.64;100228.37;105699;1252;61435;-63
2023/09/28 10:10:37;;;;;;;11.20;5.70;;;;;;;37.61;25.12;100213.23;105619;1259;74421;-67
2023/09/28 10:13:31;;;;;;;11.80;5.40;;;;;;;37.70;24.99;100215.46;105821;1259;67264;-66
2023/09/28 10:16:24;;;;;;;13.50;5.90;;;;;;;37.94;24.88;100217.66;105652;1254;73363;-71
2023/09/28 10:19:17;;;;;;;13.70;5.30;;;;;;;38.11;24.67;100216.69;105731;1258;59765;-66
2023/09/28 10:22:05;;;;;;;13.10;5.40;;;;;;;38.17;24.31;100222.73;105604;1254;61565;-67
2023/09/28 10:24:56;;;;;;;11.40;5.60;;;;;;;38.24;24.04;100213.35;105808;1254;72471;-69
2023/09/28 10:27:47;;;;;;;12.70;6.00;;;;;;;38.42;24.07;100209.96;105694;1260;68431;-67
2023/09/28 10:30:35;;;;;;;12.70;5.20;;;;;;;38.48;24.08;100209.54;105891;1256;73488;-66
2023/09/28 10:33:29;;;;;;;13.80;5.40;;;;;;;38.71;23.56;100205.56;105644;1253;59632;-64
2023/09/28 10:36:19;;;;;;;13.50;5.60;;;;;;;38.99;23.08;100205.37;105424;1256;60085;-64
2023/09/28 10:39:18;;;;;;;13.00;4.80;;;;;;;38.78;22.96;100204.55;105425;1257;72234;-64
2023/09/28 10:42:15;;;;;;;13.60;5.20;;;;;;;38.37;22.93;100213.03;105550;1257;67716;-64
2023/09/28 10:45:09;;;;;;;11.70;5.40;;;;;;;38.05;23.08;100203.83;105477;1259;73914;-65
2023/09/28 10:47:57;;;;;;;11.50;5.00;;;;;;;38.14;23.33;100204.98;105517;1259;59689;-65
2023/09/28 10:50:47;;;;;;;12.10;5.30;;;;;;;37.70;23.53;100205.14;105581;1259;61307;-71
2023/09/28 10:53:35;;;;;;;15.60;5.40;;;;;;;37.43;23.88;100205.23;105602;1257;73372;-70
2023/09/28 10:56:24;;;;;;;10.90;5.10;;;;;;;37.08;23.89;100208.00;105276;1258;67483;-69
2023/09/28 10:59:24;;;;;;;13.10;5.10;;;;;;;36.84;24.17;100201.70;105290;1260;73328;-68
2023/09/28 11:02:12;;;;;;;10.10;4.90;;;;;;;36.60;24.67;100198.17;105209;1267;59651;-66
2023/09/28 11:05:01;;;;;;;10.60;5.00;;;;;;;36.52;24.50;100191.98;105522;1259;60109;-66
2023/09/28 11:07:51;;;;;;;9.70;5.00;;;;;;;36.27;25.06;100186.35;105217;1260;71953;-68
2023/09/28 11:10:41;;;;;;;15.60;4.90;;;;;;;36.00;25.62;100187.30;105237;1257;69942;-69
2023/09/28 11:13:31;;;;;;;15.70;5.40;;;;;;;35.61;25.55;100184.93;105265;1257;73232;-66
2023/09/28 11:16:21;;;;;;;15.20;5.80;;;;;;;35.47;26.15;100180.57;105048;1257;59655;-66
2023/09/28 11:19:13;;;;;;;12.70;5.10;;;;;;;35.28;25.91;100193.34;105088;1261;59965;-68
2023/09/28 11:22:01;;;;;;;11.40;5.10;;;;;;;34.68;26.41;100183.42;104870;1257;73766;-68
2023/09/28 11:24:50;;;;;;;13.40;4.90;;;;;;;34.44;26.97;100184.64;105352;1258;68901;-68
2023/09/28 11:27:40;;;;;;;11.50;5.00;;;;;;;34.36;26.88;100188.54;105382;1262;73403;-64
2023/09/28 11:30:28;;;;;;;11.40;4.90;;;;;;;33.95;26.93;100189.18;105504;1260;59604;-66
2023/09/28 11:33:16;;;;;;;10.40;5.50;;;;;;;33.57;27.56;100180.92;105680;1254;60141;-66
2023/09/28 11:36:28;;;;;;;13.90;5.50;;;;;;;33.26;28.31;100166.33;105449;1253;73649;-67
2023/09/28 11:39:16;;;;;;;11.40;5.30;;;;;;;33.38;28.67;100157.80;105675;1256;69894;-67
2023/09/28 11:42:05;;;;;;;12.10;5.50;;;;;;;33.32;28.28;100154.67;105760;1254;74242;-65
2023/09/28 11:44:57;;;;;;;13.70;5.40;;;;;;;33.01;28.51;100156.08;105669;1253;59643;-67
2023/09/28 11:47:48;;;;;;;14.40;5.30;;;;;;;32.62;29.12;100156.08;105618;1256;60321;-67
2023/09/28 11:50:39;;;;;;;11.40;5.40;;;;;;;32.46;29.68;100147.74;105763;1256;73807;-68
2023/09/28 11:53:27;;;;;;;14.30;5.60;;;;;;;32.37;30.04;100142.11;105786;1253;68438;-67
2023/09/28 11:56:17;;;;;;;13.10;5.10;;;;;;;32.34;30.11;100141.20;105907;1254;73246;-64
2023/09/28 11:59:07;;;;;;;14.90;5.40;;;;;;;32.16;29.93;100138.98;105379;1253;59804;-67
2023/09/28 12:01:57;;;;;;;11.50;5.50;;;;;;;32.14;30.23;100137.65;105815;1256;59556;-66
2023/09/28 12:04:46;;;;;;;14.10;5.20;;;;;;;31.88;30.62;100139.54;105722;1255;74157;-65
2023/09/28 12:07:37;;;;;;;12.80;5.30;;;;;;;31.69;30.67;100142.30;105871;1253;67172;-66
2023/09/28 12:10:27;;;;;;;12.00;5.30;;;;;;;31.48;31.44;100140.98;105858;1254;73311;-65
2023/09/28 12:13:16;;;;;;;13.20;5.40;;;;;;;31.22;31.10;100139.39;105679;1258;59701;-64
2023/09/28 12:16:05;;;;;;;15.10;5.70;;;;;;;30.76;31.91;100136.30;106061;1253;61847;-65
2023/09/28 12:18:56;;;;;;;18.40;6.10;;;;;;;30.19;32.64;100130.86;106092;1254;73648;-66
2023/09/28 12:21:51;;;;;;;11.70;5.30;;;;;;;29.56;33.38;100128.85;105802;1256;68514;-64
2023/09/28 12:24:41;;;;;;;14.10;5.10;;;;;;;28.93;33.78;100126.02;105966;1256;73098;-65
2023/09/28 12:27:30;;;;;;;12.70;5.70;;;;;;;28.42;34.67;100118.77;105916;1254;60117;-65
2023/09/28 12:30:21;;;;;;;12.20;5.10;;;;;;;28.09;35.41;100115.76;105808;1253;60748;-65
2023/09/28 12:33:11;;;;;;;14.00;5.40;;;;;;;27.76;35.99;100112.59;105731;1254;73605;-64
2023/09/28 12:35:59;;;;;;;15.40;5.70;;;;;;;27.48;36.77;100111.91;105707;1256;68672;-64
2023/09/28 12:38:51;;;;;;;13.50;5.80;;;;;;;27.32;37.31;100100.57;105808;1254;73807;-65
2023/09/28 12:41:43;;;;;;;14.90;5.90;;;;;;;27.12;37.76;100094.88;105710;1253;59657;-66
2023/09/28 12:44:32;;;;;;;14.00;5.70;;;;;;;26.94;37.82;100089.06;105740;1253;59599;-64